Woodland, Illinois
Current Conditions -  °F | °C
As of 12:35 PM on Sunday 23 Nov 2014 (Local Time) from KIKK Reporting Station
Overcast Overcast  
Wind Chill: 53°   Ceiling: 1900
Heat Index: 53°   Visibility: 10mi
Dew Point: 48°   Wind: 8mph
Humidity: 85%   Direction: 140°SE
Pressure: 29.61"   Gusts: NA
Location:  40.71°N, 87.73°W
Report Text: KIKK 231835Z AUTO 14007KT 10SM OVC019 12/09 A2961 RMK AO2 T01150091
Loading
Personal Weather Stations






























Interactive Weather Map New forecast layout! Learn more

10-Day Weather Forecast

Advertisements
Track Severe Weather on mobile